Terminal Aerodrome Forecast
Issued by NWS

Home | Current Version | Previous Version | Text Only | Print | Product List | Glossary On
Versions: 1 2 3 4 5 6 7 8 9 10 11 12 13 14 15 16 17 18 19 20 21 22 23 24 25 26
164
FTUS45 KABQ 011740
TAFLVS
TAF
KLVS 011740Z 0118/0218 02011G20KT 4SM -SN BR SCT010 OVC015
      TEMPO 0118/0120 2SM -SN BR BKN010
     FM012000 04012KT P6SM VCSH BKN015 OVC050
      TEMPO 0120/0124 4SM -RASN BR OVC010
     FM020100 02007KT 5SM BR OVC007
     FM020800 01005KT 2SM BR OVC005
     FM021500 VRB04KT P6SM OVC035
      AMD NOT SKED=

USA.gov is the U.S. government's official web portal to all federal, state and local government web resources and services.